Time;durP1;ratioP1;P1;durP2;ratioP2;P2;SDS_P1;SDS_P2;PMS_P1;PMS_P2;Temp;Humidity;BMP_temperature;BMP_pressure;BME280_temperature;BME280_humidity;BME280_pressure;Samples;Min_cycle;Max_cycle;Signal;HPM_P1;HPM_P2
2023/06/05 00:02:06;;;;;;;2.05;1.08;;;;;;;14.48;65.11;102395.78;5073566;27;96921;-27
2023/06/05 00:04:32;;;;;;;1.08;0.95;;;;;;;14.45;64.79;102402.28;5072576;27;105408;-27
2023/06/05 00:06:57;;;;;;;1.40;1.00;;;;;;;14.41;64.85;102397.94;5072858;27;118883;-27
2023/06/05 00:09:23;;;;;;;1.85;0.98;;;;;;;14.48;65.53;102411.25;5073602;27;96505;-27
2023/06/05 00:11:48;;;;;;;1.88;1.20;;;;;;;14.50;64.34;102412.06;5073341;27;96963;-27
2023/06/05 00:14:14;;;;;;;1.92;1.08;;;;;;;14.41;64.49;102406.13;5054875;27;100971;-27
2023/06/05 00:16:40;;;;;;;1.63;1.08;;;;;;;14.41;64.88;102406.13;5073415;27;97453;-27
2023/06/05 00:19:05;;;;;;;1.45;1.08;;;;;;;14.43;64.83;102406.94;5072716;27;96917;-27
2023/06/05 00:21:31;;;;;;;2.38;1.05;;;;;;;14.41;64.67;102406.13;5073176;27;106511;-27
2023/06/05 00:23:56;;;;;;;1.42;0.85;;;;;;;14.26;64.72;102398.75;5073199;27;97887;-27
2023/06/05 00:26:22;;;;;;;2.83;1.25;;;;;;;14.24;64.76;102408.88;5073020;27;99220;-27
2023/06/05 00:28:47;;;;;;;1.23;0.90;;;;;;;14.24;64.85;102417.03;5072424;27;96582;-27
2023/06/05 00:31:13;;;;;;;2.13;1.30;;;;;;;14.21;65.99;102409.91;5073217;27;96843;-27
2023/06/05 00:33:39;;;;;;;1.30;0.90;;;;;;;14.16;66.03;102400.22;5072752;27;99311;-27
2023/06/05 00:36:05;;;;;;;3.15;1.52;;;;;;;14.09;65.73;102409.66;5072560;27;97928;-28
2023/06/05 00:38:31;;;;;;;1.58;1.15;;;;;;;14.12;65.99;102420.41;5054709;27;96602;-27
2023/06/05 00:40:56;;;;;;;2.50;1.23;;;;;;;14.05;65.30;102414.38;5073276;27;96788;-27
2023/06/05 00:43:21;;;;;;;1.90;1.08;;;;;;;14.09;65.66;102421.44;5073023;27;98010;-27
2023/06/05 00:45:47;;;;;;;2.13;1.10;;;;;;;14.04;65.86;102415.34;5073252;27;99747;-27
2023/06/05 00:48:13;;;;;;;2.03;1.10;;;;;;;14.00;66.66;102411.88;5054239;27;96618;-27
2023/06/05 00:50:39;;;;;;;4.68;1.30;;;;;;;14.01;65.78;102410.03;5072725;27;97018;-27
2023/06/05 00:53:07;;;;;;;2.55;1.30;;;;;;;14.03;65.99;102406.28;5053854;27;100812;-27
2023/06/05 00:55:32;;;;;;;2.20;1.20;;;;;;;14.00;66.36;102406.44;5054234;27;99850;-27
2023/06/05 00:58:00;;;;;;;2.58;1.20;;;;;;;14.03;66.06;102408.13;5072844;27;96539;-27
2023/06/05 01:00:26;;;;;;;2.17;1.20;;;;;;;13.96;65.42;102409.38;5072873;27;96759;-27
2023/06/05 01:02:53;;;;;;;3.55;1.02;;;;;;;13.91;66.03;102404.16;5053769;27;101008;-27
2023/06/05 01:05:21;;;;;;;3.70;1.27;;;;;;;13.88;65.26;102407.06;5054127;27;101006;-27
2023/06/05 01:07:49;;;;;;;1.63;1.25;;;;;;;13.85;65.70;102401.78;5054182;27;97077;-27
2023/06/05 01:10:15;;;;;;;3.97;1.42;;;;;;;13.91;65.21;102406.03;5058224;27;96854;-27
2023/06/05 01:12:57;;;;;;;4.55;1.63;;;;;;;13.91;66.06;102415.06;5076291;27;98067;-27
2023/06/05 01:15:28;;;;;;;5.97;1.40;;;;;;;13.76;65.63;102400.38;5057649;27;100787;-27
2023/06/05 01:18:00;;;;;;;2.55;1.42;;;;;;;13.73;65.84;102408.72;5075837;27;96790;-27
2023/06/05 01:20:37;;;;;;;1.77;1.20;;;;;;;13.78;66.53;102405.78;5076158;27;96819;-29
2023/06/05 01:23:03;;;;;;;1.80;1.20;;;;;;;13.70;66.67;102400.69;5057629;27;101102;-28
2023/06/05 01:25:29;;;;;;;2.92;1.55;;;;;;;13.71;66.29;102398.88;5057607;27;101011;-27
2023/06/05 01:28:00;;;;;;;2.78;1.35;;;;;;;13.70;66.65;102407.97;5075991;27;96749;-27
2023/06/05 01:30:40;;;;;;;2.90;1.50;;;;;;;13.69;66.76;102395.34;5057582;27;96708;-28
2023/06/05 01:33:13;;;;;;;1.98;0.93;;;;;;;13.74;66.36;102405.03;5057241;27;100953;-27
2023/06/05 01:35:40;;;;;;;3.60;1.35;;;;;;;13.70;66.60;102399.81;5057727;27;101423;-27
2023/06/05 01:38:09;;;;;;;2.65;1.42;;;;;;;13.66;66.43;102400.91;5075739;27;96504;-28
2023/06/05 01:40:36;;;;;;;2.20;1.25;;;;;;;13.67;66.24;102397.25;5075624;27;96838;-27
2023/06/05 01:43:05;;;;;;;2.10;1.23;;;;;;;13.72;66.07;102406.94;5056783;27;101911;-27
2023/06/05 01:45:31;;;;;;;3.63;1.80;;;;;;;13.65;65.99;102400.03;5057309;27;101130;-28
2023/06/05 01:47:57;;;;;;;4.40;1.42;;;;;;;13.64;66.65;102402.84;5057286;27;96658;-29
2023/06/05 01:50:22;;;;;;;2.70;1.42;;;;;;;13.58;66.41;102395.84;5075762;27;96790;-27
2023/06/05 01:52:49;;;;;;;2.67;1.33;;;;;;;13.56;66.58;102395.03;5075510;27;98398;-27
2023/06/05 01:55:18;;;;;;;3.80;1.40;;;;;;;13.51;67.37;102389.81;5056906;27;100730;-27
2023/06/05 01:57:44;;;;;;;2.38;1.38;;;;;;;13.53;67.16;102390.63;5057212;27;97146;-27
2023/06/05 02:00:13;;;;;;;1.65;0.98;;;;;;;13.42;67.16;102379.41;5076171;27;96781;-27
2023/06/05 02:02:47;;;;;;;2.13;1.35;;;;;;;13.38;67.82;102388.66;5057031;27;100908;-27
2023/06/05 02:05:14;;;;;;;2.67;1.60;;;;;;;13.29;67.65;102375.50;5056971;27;99099;-27
2023/06/05 02:07:41;;;;;;;2.75;1.48;;;;;;;13.34;67.30;102382.47;5056345;27;97036;-27
2023/06/05 02:10:08;;;;;;;1.75;1.23;;;;;;;13.29;68.44;102378.22;5056948;27;96825;-27
2023/06/05 02:12:34;;;;;;;2.22;1.10;;;;;;;13.37;68.04;102385.06;5056759;27;100860;-27
2023/06/05 02:15:00;;;;;;;2.53;1.35;;;;;;;13.36;67.94;102380.56;5056717;27;100768;-27
2023/06/05 02:17:26;;;;;;;4.55;1.40;;;;;;;13.36;67.76;102387.84;5056768;27;96673;-27
2023/06/05 02:19:52;;;;;;;1.73;1.10;;;;;;;13.38;66.53;102380.50;5073981;27;96896;-27
2023/06/05 02:22:18;;;;;;;2.08;1.15;;;;;;;13.36;68.12;102390.59;5056623;27;101008;-27
2023/06/05 02:24:44;;;;;;;3.05;1.35;;;;;;;13.33;69.20;102380.72;5075437;27;97796;-28
2023/06/05 02:27:10;;;;;;;2.15;1.05;;;;;;;13.31;68.60;102392.66;5056552;27;96595;-27
2023/06/05 02:29:36;;;;;;;2.30;1.23;;;;;;;13.26;68.43;102376.50;5074997;27;96908;-27
2023/06/05 02:32:02;;;;;;;2.53;1.50;;;;;;;13.25;68.13;102369.31;5055720;27;101025;-27
2023/06/05 02:34:28;;;;;;;2.35;1.23;;;;;;;13.29;68.52;102375.50;5056190;27;102250;-29
2023/06/05 02:36:53;;;;;;;1.35;0.90;;;;;;;13.24;68.89;102382.97;5074638;27;96764;-27
2023/06/05 02:39:19;;;;;;;3.20;1.80;;;;;;;13.23;68.59;102373.03;5074850;27;96854;-27
2023/06/05 02:41:44;;;;;;;1.65;1.20;;;;;;;13.24;68.52;102381.13;5074585;27;99496;-27
2023/06/05 02:44:10;;;;;;;2.15;1.20;;;;;;;13.24;69.00;102381.13;5074522;27;98769;-27
2023/06/05 02:46:35;;;;;;;2.55;1.30;;;;;;;13.22;67.82;102380.31;5074889;27;96595;-28
2023/06/05 02:49:00;;;;;;;2.40;1.40;;;;;;;13.20;67.97;102375.91;5074587;27;99402;-28
2023/06/05 02:51:26;;;;;;;1.52;1.05;;;;;;;13.08;68.79;102371.94;5074470;27;99450;-27
2023/06/05 02:53:51;;;;;;;2.75;1.40;;;;;;;13.10;69.35;102375.47;5074675;27;98138;-27
2023/06/05 02:56:16;;;;;;;2.47;1.25;;;;;;;13.12;68.69;102373.56;5073961;27;106322;-28
2023/06/05 02:58:43;;;;;;;3.45;1.40;;;;;;;13.09;68.19;102362.84;5074512;27;96610;-27
2023/06/05 03:01:11;;;;;;;3.00;1.38;;;;;;;13.09;68.69;102362.84;5056003;27;101344;-27
2023/06/05 03:03:36;;;;;;;2.85;1.25;;;;;;;13.05;69.05;102367.53;5055742;27;101104;-27
2023/06/05 03:06:06;;;;;;;2.13;1.25;;;;;;;13.02;68.66;102361.38;5074660;27;96568;-27
2023/06/05 03:08:35;;;;;;;2.33;1.30;;;;;;;13.03;69.13;102349.53;5074437;27;96751;-28
2023/06/05 03:11:02;;;;;;;2.40;1.35;;;;;;;13.05;68.58;102356.66;5055809;27;100832;-28
2023/06/05 03:13:27;;;;;;;5.78;1.63;;;;;;;13.03;68.74;102353.13;5056157;27;100887;-28
2023/06/05 03:15:56;;;;;;;2.38;1.17;;;;;;;13.07;69.02;102359.31;5074170;27;96668;-27
2023/06/05 03:18:25;;;;;;;2.10;1.25;;;;;;;12.98;69.15;102348.84;5073942;27;96876;-28
2023/06/05 03:20:54;;;;;;;2.28;1.27;;;;;;;12.93;68.98;102340.91;5054981;27;100971;-27
2023/06/05 03:23:21;;;;;;;4.35;1.25;;;;;;;12.97;69.68;102358.88;5055729;27;101062;-27
2023/06/05 03:25:46;;;;;;;4.55;1.15;;;;;;;12.91;68.19;102353.69;5074381;27;96426;-27
2023/06/05 03:28:11;;;;;;;2.65;1.45;;;;;;;12.90;69.33;102351.94;5074189;27;96969;-27
2023/06/05 03:30:37;;;;;;;3.72;1.75;;;;;;;12.81;69.30;102345.09;5073720;27;97579;-30
2023/06/05 03:33:02;;;;;;;2.38;1.38;;;;;;;12.86;68.81;102361.19;5073296;27;108566;-27
2023/06/05 03:35:28;;;;;;;1.88;1.23;;;;;;;12.81;69.93;102357.81;5074265;27;96530;-27
2023/06/05 03:37:53;;;;;;;1.48;1.13;;;;;;;12.80;69.53;102350.59;5074212;27;97816;-27
2023/06/05 03:40:18;;;;;;;2.38;1.35;;;;;;;12.75;69.38;102345.38;5073723;27;105184;-27
2023/06/05 03:42:44;;;;;;;3.83;1.33;;;;;;;12.82;69.15;102348.69;5055572;27;97422;-27
2023/06/05 03:45:10;;;;;;;2.83;1.50;;;;;;;12.78;68.10;102344.38;5054660;27;103600;-27
2023/06/05 03:47:35;;;;;;;1.90;1.13;;;;;;;12.72;70.17;102351.84;5055073;27;96882;-27
2023/06/05 03:50:03;;;;;;;3.40;1.17;;;;;;;12.70;69.23;102353.78;5073735;27;97392;-28
2023/06/05 03:52:29;;;;;;;2.13;1.33;;;;;;;12.73;70.16;102364.50;5055146;27;101589;-27
2023/06/05 03:54:55;;;;;;;2.20;1.20;;;;;;;12.67;69.78;102358.44;5073843;27;96644;-27
2023/06/05 03:57:21;;;;;;;1.77;1.10;;;;;;;12.65;69.47;102358.50;5073595;27;96753;-27
2023/06/05 03:59:49;;;;;;;3.78;1.45;;;;;;;12.55;68.96;102354.47;5055045;27;100993;-27
2023/06/05 04:02:15;;;;;;;2.85;1.42;;;;;;;12.60;69.74;102362.41;5073876;27;97816;-27
2023/06/05 04:04:40;;;;;;;1.92;1.15;;;;;;;12.55;69.96;102357.19;5055257;27;96790;-28
2023/06/05 04:07:06;;;;;;;1.88;1.25;;;;;;;12.54;70.57;102355.44;5073702;27;96773;-27
2023/06/05 04:09:31;;;;;;;1.95;1.05;;;;;;;12.54;70.20;102355.44;5072767;27;99310;-27
2023/06/05 04:11:57;;;;;;;2.60;1.45;;;;;;;12.52;69.30;102355.47;5073113;27;98774;-27
2023/06/05 04:14:23;;;;;;;2.50;1.08;;;;;;;12.57;70.46;102358.00;5073334;27;96584;-27
2023/06/05 04:16:48;;;;;;;3.85;1.80;;;;;;;12.60;69.41;102366.00;5073444;27;96803;-27
2023/06/05 04:19:14;;;;;;;2.67;1.13;;;;;;;12.51;68.99;102358.25;5073153;27;97532;-27
2023/06/05 04:21:40;;;;;;;2.00;1.25;;;;;;;12.52;69.93;102362.75;5072996;27;99134;-27
2023/06/05 04:24:12;;;;;;;5.47;1.92;;;;;;;12.41;69.72;102360.50;5054728;27;96693;-29
2023/06/05 04:26:41;;;;;;;2.45;1.25;;;;;;;12.40;69.97;102355.16;5055262;27;96697;-27
2023/06/05 04:29:10;;;;;;;2.85;1.60;;;;;;;12.37;70.61;102367.06;5054453;27;101329;-27
2023/06/05 04:31:35;;;;;;;2.88;1.52;;;;;;;12.37;71.22;102377.03;5054520;27;100814;-28
2023/06/05 04:34:01;;;;;;;2.35;1.30;;;;;;;12.37;70.10;102379.75;5072624;27;96481;-27
2023/06/05 04:36:28;;;;;;;2.25;1.27;;;;;;;12.26;70.91;102367.53;5072644;27;97839;-27
2023/06/05 04:38:53;;;;;;;2.22;1.40;;;;;;;12.28;71.44;102371.06;5073003;27;97353;-27
2023/06/05 04:41:18;;;;;;;2.83;1.27;;;;;;;12.31;70.37;102376.34;5073103;27;97311;-27
2023/06/05 04:43:44;;;;;;;3.55;1.48;;;;;;;12.41;69.24;102381.38;5072327;27;96950;-27
2023/06/05 04:46:09;;;;;;;3.35;1.50;;;;;;;12.44;69.81;102384.84;5072887;27;96771;-27
2023/06/05 04:48:34;;;;;;;2.58;1.70;;;;;;;12.41;69.75;102379.53;5072736;27;98061;-28
2023/06/05 04:51:00;;;;;;;3.17;1.40;;;;;;;12.42;70.60;102392.19;5072935;27;99487;-27
2023/06/05 04:53:28;;;;;;;4.55;1.55;;;;;;;12.47;69.69;102400.13;5073053;27;96622;-27
2023/06/05 04:55:55;;;;;;;2.75;1.63;;;;;;;12.50;69.60;102400.88;5054449;27;96864;-27
2023/06/05 04:58:21;;;;;;;1.38;0.93;;;;;;;12.52;70.21;102395.38;5072008;27;97988;-27
2023/06/05 05:00:48;;;;;;;3.15;1.90;;;;;;;12.53;69.39;102399.84;5054105;27;100831;-28
2023/06/05 05:03:14;;;;;;;1.88;1.30;;;;;;;12.54;69.59;102393.47;5072765;27;97280;-28
2023/06/05 05:05:39;;;;;;;2.55;1.63;;;;;;;12.60;69.30;102403.19;5072542;27;96842;-27
2023/06/05 05:08:05;;;;;;;2.35;1.30;;;;;;;12.57;70.18;102393.34;5072355;27;99330;-28
2023/06/05 05:10:31;;;;;;;3.08;1.67;;;;;;;12.63;69.75;102398.50;5072468;27;98774;-27
2023/06/05 05:13:00;;;;;;;1.67;1.05;;;;;;;12.64;69.41;102400.25;5053956;27;96687;-27
2023/06/05 05:15:26;;;;;;;2.30;1.42;;;;;;;12.67;70.11;102385.63;5054490;27;96850;-27
2023/06/05 05:17:52;;;;;;;3.25;1.23;;;;;;;12.74;69.08;102390.72;5072386;27;99881;-27
2023/06/05 05:20:18;;;;;;;3.90;1.35;;;;;;;12.76;69.01;102377.06;5072054;27;99597;-27
2023/06/05 05:22:44;;;;;;;2.65;1.30;;;;;;;12.83;69.21;102392.13;5072056;27;96670;-28
2023/06/05 05:25:09;;;;;;;3.13;1.60;;;;;;;12.89;69.17;102391.84;5072368;27;108433;-28
2023/06/05 05:27:34;;;;;;;1.65;1.05;;;;;;;12.90;69.32;102381.88;5072002;27;99054;-27
2023/06/05 05:30:00;;;;;;;2.22;1.45;;;;;;;12.98;68.41;102389.66;5072018;27;110433;-28
2023/06/05 05:32:25;;;;;;;1.73;1.20;;;;;;;12.92;69.20;102389.00;5072150;27;96569;-28
2023/06/05 05:34:51;;;;;;;1.83;1.20;;;;;;;12.99;68.81;102399.56;5072182;27;96859;-28
2023/06/05 05:37:16;;;;;;;2.67;1.38;;;;;;;12.99;69.52;102392.31;5071530;27;99361;-27
2023/06/05 05:39:41;;;;;;;2.22;1.30;;;;;;;13.07;68.97;102395.53;5072393;27;98501;-27
2023/06/05 05:42:07;;;;;;;2.47;1.15;;;;;;;13.11;68.89;102394.47;5071983;27;96679;-28
2023/06/05 05:44:32;;;;;;;3.85;1.35;;;;;;;13.13;69.23;102389.81;5072256;27;96868;-27
2023/06/05 05:46:57;;;;;;;3.92;1.50;;;;;;;13.20;69.39;102389.53;5071357;27;99265;-27
2023/06/05 05:49:22;;;;;;;2.08;1.27;;;;;;;13.27;67.83;102372.84;5072084;27;97284;-27
2023/06/05 05:51:49;;;;;;;2.63;1.45;;;;;;;13.37;68.19;102378.72;5071923;27;102264;-27
2023/06/05 05:54:15;;;;;;;3.20;1.70;;;;;;;13.47;68.14;102385.50;5073044;27;96822;-28
2023/06/05 05:56:42;;;;;;;3.30;1.80;;;;;;;13.51;67.88;102384.38;5075150;27;100972;-27
2023/06/05 05:59:07;;;;;;;2.75;1.35;;;;;;;13.60;67.83;102386.66;5075439;27;99353;-27
2023/06/05 06:01:33;;;;;;;3.17;1.83;;;;;;;13.68;68.43;102388.09;5075808;27;96832;-30
2023/06/05 06:03:58;;;;;;;4.20;1.75;;;;;;;13.63;68.18;102376.56;5076052;27;96777;-27
2023/06/05 06:06:24;;;;;;;1.65;1.10;;;;;;;13.72;68.22;102400.63;5075323;27;97893;-27
2023/06/05 06:08:50;;;;;;;1.88;1.25;;;;;;;13.77;67.66;102393.97;5056839;27;99024;-27
2023/06/05 06:11:16;;;;;;;5.38;1.33;;;;;;;13.90;68.05;102398.81;5074667;27;96745;-29
2023/06/05 06:13:43;;;;;;;1.95;1.27;;;;;;;13.99;66.87;102395.59;5075427;27;96674;-28
2023/06/05 06:16:08;;;;;;;3.15;1.63;;;;;;;14.05;67.15;102383.53;5056542;27;101038;-27
2023/06/05 06:18:33;;;;;;;2.70;1.83;;;;;;;14.12;66.81;102391.31;5075324;27;97823;-28
2023/06/05 06:20:59;;;;;;;2.63;1.33;;;;;;;14.18;66.56;102381.91;5074646;27;107571;-27
2023/06/05 06:23:24;;;;;;;2.45;1.67;;;;;;;14.29;66.36;102393.16;5075118;27;96888;-27
2023/06/05 06:25:51;;;;;;;3.08;1.77;;;;;;;14.23;66.41;102388.91;5074350;27;97959;-28
2023/06/05 06:28:17;;;;;;;2.53;1.60;;;;;;;14.36;66.06;102390.97;5073948;27;97638;-27
2023/06/05 06:30:43;;;;;;;3.50;1.55;;;;;;;14.34;65.81;102380.16;5075012;27;96833;-27
2023/06/05 06:33:08;;;;;;;2.63;1.75;;;;;;;14.55;65.47;102396.38;5056255;27;96606;-28
2023/06/05 06:35:34;;;;;;;3.13;1.92;;;;;;;14.62;65.64;102393.22;5074444;27;98087;-27
2023/06/05 06:38:00;;;;;;;3.53;1.77;;;;;;;14.75;65.19;102389.84;5056229;27;101185;-27
2023/06/05 06:40:25;;;;;;;3.47;2.15;;;;;;;14.80;64.91;102394.09;5074740;27;96616;-28
2023/06/05 06:42:51;;;;;;;2.83;1.70;;;;;;;14.90;64.73;102393.56;5074636;27;104103;-28
2023/06/05 06:45:17;;;;;;;2.67;1.52;;;;;;;15.00;64.44;102389.38;5074850;27;97978;-27
2023/06/05 06:47:43;;;;;;;2.72;1.92;;;;;;;15.10;64.16;102393.34;5074815;27;97305;-28
2023/06/05 06:50:09;;;;;;;3.05;1.55;;;;;;;15.15;63.96;102391.25;5056759;27;96693;-27
2023/06/05 06:52:34;;;;;;;4.90;2.00;;;;;;;15.32;63.72;102394.88;5056724;27;96744;-27
2023/06/05 06:55:00;;;;;;;2.65;1.60;;;;;;;15.40;63.47;102406.25;5074298;27;99269;-28
2023/06/05 06:57:25;;;;;;;3.30;1.92;;;;;;;15.38;63.52;102402.72;5074505;27;98315;-27
2023/06/05 06:59:51;;;;;;;3.00;1.60;;;;;;;15.44;63.26;102399.63;5074051;27;96658;-27
2023/06/05 07:02:25;;;;;;;5.18;1.80;;;;;;;15.45;63.13;102398.69;5074436;27;96878;-28
2023/06/05 07:04:53;;;;;;;2.95;1.77;;;;;;;15.51;63.41;102398.31;5056085;27;101242;-27
2023/06/05 07:07:21;;;;;;;2.63;1.85;;;;;;;15.59;63.04;102393.28;5055058;27;101015;-27
2023/06/05 07:09:48;;;;;;;2.88;1.88;;;;;;;15.71;62.84;102411.72;5055960;27;96791;-27
2023/06/05 07:12:15;;;;;;;4.03;1.65;;;;;;;15.82;62.99;102400.16;5074304;27;96827;-27
2023/06/05 07:14:41;;;;;;;2.88;1.77;;;;;;;15.99;62.42;102395.56;5055598;27;101070;-27
2023/06/05 07:17:06;;;;;;;4.00;1.88;;;;;;;16.09;62.19;102399.53;5074594;27;97847;-27
2023/06/05 07:19:33;;;;;;;4.53;1.85;;;;;;;16.29;61.97;102401.03;5055598;27;96835;-27
2023/06/05 07:22:00;;;;;;;3.30;1.70;;;;;;;16.44;61.52;102405.56;5055522;27;96876;-27
2023/06/05 07:24:27;;;;;;;5.97;2.08;;;;;;;16.55;61.39;102400.31;5055230;27;101000;-27
2023/06/05 07:26:55;;;;;;;2.58;1.50;;;;;;;16.61;61.65;102398.16;5055443;27;100529;-27
2023/06/05 07:29:21;;;;;;;2.97;1.60;;;;;;;16.75;61.14;102392.69;5055618;27;96673;-27
2023/06/05 07:31:47;;;;;;;3.05;1.50;;;;;;;16.95;60.41;102405.19;5055442;27;96889;-27
2023/06/05 07:34:13;;;;;;;2.22;1.50;;;;;;;17.11;59.97;102405.06;5055625;27;100942;-28
2023/06/05 07:36:38;;;;;;;2.83;1.65;;;;;;;17.24;59.57;102408.78;5073582;27;97710;-27
2023/06/05 07:39:04;;;;;;;3.15;1.23;;;;;;;17.20;59.69;102408.09;5055487;27;96711;-27
2023/06/05 07:41:30;;;;;;;2.63;1.42;;;;;;;17.35;59.17;102399.84;5074461;27;96741;-27
2023/06/05 07:43:55;;;;;;;1.90;1.33;;;;;;;17.40;58.75;102395.84;5073898;27;97910;-27
2023/06/05 07:46:20;;;;;;;2.75;1.45;;;;;;;17.44;58.75;102385.53;5073689;27;99247;-27
2023/06/05 07:48:46;;;;;;;2.33;1.38;;;;;;;17.51;58.82;102397.84;5073427;27;96634;-28
2023/06/05 07:51:11;;;;;;;2.08;1.42;;;;;;;17.53;58.88;102406.00;5074014;27;96584;-27
2023/06/05 07:53:36;;;;;;;3.47;1.65;;;;;;;17.59;58.42;102397.34;5073493;27;99342;-27
2023/06/05 07:56:02;;;;;;;3.58;1.30;;;;;;;17.69;58.22;102404.00;5073800;27;97368;-28
2023/06/05 07:58:28;;;;;;;2.33;1.20;;;;;;;17.85;57.98;102403.84;5074218;27;96570;-27
2023/06/05 08:00:53;;;;;;;3.47;1.55;;;;;;;17.91;57.58;102397.09;5073638;27;96842;-28
2023/06/05 08:03:19;;;;;;;3.00;1.55;;;;;;;17.99;57.78;102405.66;5073945;27;97499;-27
2023/06/05 08:05:49;;;;;;;3.60;1.38;;;;;;;18.07;57.37;102405.13;5073405;27;99418;-27
2023/06/05 08:08:14;;;;;;;2.25;1.35;;;;;;;18.06;56.89;102390.56;5055158;27;96700;-27
2023/06/05 08:10:40;;;;;;;2.65;1.40;;;;;;;18.16;57.29;102391.69;5073302;27;96979;-27
2023/06/05 08:13:07;;;;;;;1.73;1.17;;;;;;;18.25;56.62;102399.25;5073014;27;98021;-27
2023/06/05 08:15:32;;;;;;;3.30;1.40;;;;;;;18.34;56.41;102397.75;5073469;27;97905;-28
2023/06/05 08:17:57;;;;;;;4.10;1.60;;;;;;;18.43;56.74;102399.00;5071724;27;108557;-27
2023/06/05 08:20:22;;;;;;;2.35;1.52;;;;;;;18.50;56.42;102403.06;5072841;27;102938;-28
2023/06/05 08:22:49;;;;;;;3.47;1.25;;;;;;;18.58;56.29;102400.63;5072624;27;120486;-27
2023/06/05 08:25:14;;;;;;;2.70;1.35;;;;;;;18.67;56.19;102389.00;5054623;27;101181;-27
2023/06/05 08:27:39;;;;;;;1.75;1.33;;;;;;;18.83;55.70;102391.59;5073718;27;96546;-28
2023/06/05 08:30:06;;;;;;;4.53;1.20;;;;;;;18.93;55.62;102385.44;5073727;27;96839;-27
2023/06/05 08:32:32;;;;;;;3.88;1.45;;;;;;;19.03;55.47;102390.13;5054261;27;101452;-27
2023/06/05 08:34:57;;;;;;;1.60;1.10;;;;;;;19.07;55.06;102385.31;5072842;27;97786;-27
2023/06/05 08:37:23;;;;;;;2.65;1.30;;;;;;;19.19;54.19;102392.63;5072449;27;96851;-28
2023/06/05 08:39:48;;;;;;;2.38;1.05;;;;;;;19.22;53.91;102388.78;5073233;27;101434;-27
2023/06/05 08:42:18;;;;;;;3.95;1.08;;;;;;;19.33;54.14;102385.22;5072844;27;99127;-28
2023/06/05 08:44:47;;;;;;;2.15;1.30;;;;;;;19.44;53.32;102388.94;5054360;27;101149;-27
2023/06/05 08:47:14;;;;;;;2.80;1.15;;;;;;;19.52;53.33;102381.00;5072878;27;96673;-27
2023/06/05 08:49:41;;;;;;;2.72;1.30;;;;;;;19.57;53.79;102382.50;5054403;27;96905;-27
2023/06/05 08:52:08;;;;;;;1.60;1.25;;;;;;;19.72;53.67;102382.28;5054247;27;99521;-28
2023/06/05 08:54:38;;;;;;;2.67;1.33;;;;;;;19.81;53.06;102380.72;5054730;27;101660;-27
2023/06/05 08:57:06;;;;;;;5.85;1.60;;;;;;;19.83;52.50;102375.97;5054380;27;96508;-27
2023/06/05 08:59:32;;;;;;;2.47;1.50;;;;;;;19.69;52.69;102376.16;5072789;27;96829;-29
2023/06/05 09:01:57;;;;;;;4.13;1.38;;;;;;;19.76;53.02;102377.44;5053427;27;101139;-27
2023/06/05 09:04:24;;;;;;;2.80;1.60;;;;;;;19.72;52.48;102374.03;5072699;27;97765;-27
2023/06/05 09:06:52;;;;;;;2.50;1.48;;;;;;;19.87;52.88;102377.47;5072648;27;96591;-27
2023/06/05 09:09:18;;;;;;;1.85;1.15;;;;;;;20.02;52.63;102374.53;5072573;27;96815;-27
2023/06/05 09:11:43;;;;;;;1.80;1.27;;;;;;;20.10;51.94;102369.34;5054087;27;101671;-27
2023/06/05 09:14:09;;;;;;;2.80;1.35;;;;;;;20.17;51.48;102365.09;5072567;27;98112;-27
2023/06/05 09:16:38;;;;;;;2.45;1.15;;;;;;;20.34;51.75;102375.66;5054183;27;96659;-28
2023/06/05 09:19:05;;;;;;;3.40;1.33;;;;;;;20.34;51.71;102374.78;5072589;27;96892;-27
2023/06/05 09:21:32;;;;;;;1.48;0.95;;;;;;;20.53;51.57;102371.47;5053878;27;101175;-27
2023/06/05 09:24:18;;;;;;;2.40;1.35;;;;;;;20.52;50.70;102365.06;5053928;27;98951;-27
2023/06/05 09:26:46;;;;;;;2.90;1.50;;;;;;;20.56;50.81;102374.00;5072212;27;96660;-27
2023/06/05 09:29:12;;;;;;;2.15;1.20;;;;;;;20.70;50.63;102372.88;5072846;27;96910;-27
2023/06/05 09:31:44;;;;;;;2.00;1.30;;;;;;;20.79;50.96;102363.88;5075442;27;113102;-27
2023/06/05 09:34:09;;;;;;;2.67;1.52;;;;;;;20.99;50.47;102370.53;5057322;27;100789;-27
2023/06/05 09:36:45;;;;;;;1.98;1.25;;;;;;;20.95;49.81;102358.88;5075960;27;96705;-27
2023/06/05 09:39:14;;;;;;;3.85;1.65;;;;;;;20.92;50.03;102350.84;5057547;27;96802;-27
2023/06/05 09:41:44;;;;;;;2.33;1.27;;;;;;;20.97;49.97;102354.13;5056891;27;101255;-27
2023/06/05 09:44:10;;;;;;;2.28;1.40;;;;;;;21.08;49.68;102358.75;5057615;27;100770;-27
2023/06/05 09:46:59;;;;;;;2.88;1.42;;;;;;;21.08;49.32;102356.00;5057303;27;96617;-27
2023/06/05 09:49:30;;;;;;;2.08;1.10;;;;;;;21.21;49.33;102370.53;5057388;27;96753;-27
2023/06/05 09:51:58;;;;;;;2.53;1.35;;;;;;;21.28;49.04;102364.50;5074792;27;99667;-27
2023/06/05 09:54:28;;;;;;;2.90;1.35;;;;;;;21.34;48.80;102366.75;5057140;27;100875;-27
2023/06/05 09:56:58;;;;;;;2.23;1.47;;;;;;;21.48;49.01;102352.72;5057418;27;96753;-27
2023/06/05 09:59:32;;;;;;;2.47;1.48;;;;;;;21.56;48.62;102354.81;5057290;27;96867;-27
2023/06/05 10:02:05;;;;;;;2.90;1.15;;;;;;;21.45;48.07;102352.97;5075623;27;97964;-27
2023/06/05 10:04:38;;;;;;;2.38;1.08;;;;;;;21.48;48.71;102358.22;5056687;27;100805;-27
2023/06/05 10:07:04;;;;;;;2.30;1.20;;;;;;;21.56;48.47;102357.59;5057078;27;96585;-27
2023/06/05 10:09:31;;;;;;;2.47;1.10;;;;;;;21.65;47.68;102361.47;5075559;27;96894;-26
2023/06/05 10:11:58;;;;;;;1.67;1.13;;;;;;;21.70;47.86;102353.66;5056750;27;101553;-27
2023/06/05 10:14:24;;;;;;;3.05;1.23;;;;;;;21.73;48.28;102358.91;5075227;27;97843;-27
2023/06/05 10:16:54;;;;;;;2.28;1.35;;;;;;;21.74;47.62;102349.66;5074607;27;96648;-28
2023/06/05 10:19:20;;;;;;;2.25;1.20;;;;;;;21.87;47.82;102346.69;5056511;27;96761;-27
2023/06/05 10:21:49;;;;;;;2.33;1.15;;;;;;;22.05;47.90;102339.59;5056531;27;100901;-28
2023/06/05 10:24:26;;;;;;;3.35;1.55;;;;;;;22.10;47.01;102336.44;5056727;27;100667;-27
2023/06/05 10:27:09;;;;;;;3.63;1.30;;;;;;;22.24;46.92;102350.81;5056807;27;96853;-27
2023/06/05 10:30:08;;;;;;;2.97;1.48;;;;;;;22.38;47.75;102344.09;5075127;27;96875;-29
2023/06/05 10:32:59;;;;;;;2.15;1.30;;;;;;;22.54;46.74;102343.59;5074489;27;99243;-27
2023/06/05 10:35:49;;;;;;;3.70;1.33;;;;;;;22.55;46.24;102336.19;5056773;27;100813;-27
2023/06/05 10:38:24;;;;;;;2.97;1.55;;;;;;;22.55;46.83;102333.41;5074900;27;96493;-27
2023/06/05 10:41:01;;;;;;;2.80;1.55;;;;;;;22.65;46.44;102338.00;5055558;27;96819;-29
2023/06/05 10:43:31;;;;;;;2.20;1.52;;;;;;;22.60;46.29;102328.38;5055804;27;100851;-28
2023/06/05 10:45:59;;;;;;;2.00;1.38;;;;;;;22.71;45.64;102327.41;5074765;27;97992;-27
2023/06/05 10:49:01;;;;;;;2.83;1.50;;;;;;;22.92;45.75;102339.28;5074425;27;97680;-28
2023/06/05 10:51:43;;;;;;;2.85;1.48;;;;;;;22.80;44.81;102337.63;5074919;27;96869;-27
2023/06/05 10:54:16;;;;;;;2.42;1.42;;;;;;;22.77;44.99;102327.72;5056216;27;100901;-27
2023/06/05 10:57:02;;;;;;;4.82;2.33;;;;;;;22.83;45.09;102329.91;5074422;27;99374;-27
2023/06/05 10:59:29;;;;;;;3.30;1.80;;;;;;;22.89;45.43;102329.38;5074822;27;96580;-27
2023/06/05 11:02:19;;;;;;;2.90;1.70;;;;;;;22.87;44.76;102331.41;5075205;27;96765;-27
2023/06/05 11:04:46;;;;;;;2.83;1.65;;;;;;;22.94;44.88;102328.09;5047802;27;101081;-27
2023/06/05 11:07:21;;;;;;;3.00;1.60;;;;;;;22.92;44.93;102333.75;5055861;27;101399;-28
2023/06/05 11:10:02;;;;;;;2.97;1.58;;;;;;;22.95;44.49;102327.94;5055305;27;97161;-27
2023/06/05 11:12:42;;;;;;;2.97;1.73;;;;;;;22.83;43.75;102309.72;5074703;27;96816;-27
2023/06/05 11:15:08;;;;;;;2.38;1.33;;;;;;;22.94;44.93;102317.91;5074199;27;98826;-27
2023/06/05 11:17:36;;;;;;;2.92;1.77;;;;;;;22.90;45.32;102320.06;5055846;27;99971;-27
2023/06/05 11:20:07;;;;;;;4.28;1.48;;;;;;;23.03;45.00;102322.63;5055684;27;96969;-27
2023/06/05 11:22:33;;;;;;;3.05;1.73;;;;;;;23.14;44.14;102320.78;5055897;27;96747;-28
2023/06/05 11:25:13;;;;;;;3.70;1.58;;;;;;;23.18;44.25;102316.72;5074144;27;97871;-27
2023/06/05 11:27:46;;;;;;;4.78;1.60;;;;;;;23.12;44.81;102301.59;5074490;27;97905;-28